createdAt,value
2023-05-25T00:01:55.685Z,100701.66
2023-05-25T00:02:50.768Z,100720.84
2023-05-25T00:03:46.703Z,100688.81
2023-05-25T00:04:40.799Z,100688.81
2023-05-25T00:05:34.618Z,100687.53
2023-05-25T00:06:16.651Z,100685.94
2023-05-25T00:06:56.685Z,100702.97
2023-05-25T00:07:36.640Z,100713.13
2023-05-25T00:08:17.150Z,100690.78
2023-05-25T00:09:01.615Z,100709.53
2023-05-25T00:09:41.692Z,100726.09
2023-05-25T00:10:24.273Z,100696.81
2023-05-25T00:11:05.979Z,100707.97
2023-05-25T00:11:46.646Z,100704.97
2023-05-25T00:12:26.794Z,100711.97
2023-05-25T00:13:07.613Z,100713.97
2023-05-25T00:13:47.691Z,100712.53
2023-05-25T00:14:29.589Z,100693.94
2023-05-25T00:15:11.809Z,100707.38
2023-05-25T00:15:52.622Z,100711.53
2023-05-25T00:16:37.319Z,100686.94
2023-05-25T00:17:18.718Z,100696.81
2023-05-25T00:17:58.739Z,100704.66
2023-05-25T00:18:39.594Z,100716.09
2023-05-25T00:19:19.687Z,100710.81
2023-05-25T00:19:59.583Z,100692.94
2023-05-25T00:20:39.759Z,100705.94
2023-05-25T00:21:20.625Z,100700.66
2023-05-25T00:22:03.902Z,100713.13
2023-05-25T00:22:44.611Z,100721.38
2023-05-25T00:23:24.714Z,100704.50
2023-05-25T00:24:04.594Z,100702.53
2023-05-25T00:24:46.677Z,100715.69
2023-05-25T00:25:27.586Z,100722.25
2023-05-25T00:26:10.865Z,100706.63
2023-05-25T00:26:51.598Z,100719.38
2023-05-25T00:27:31.666Z,100719.63
2023-05-25T00:28:12.690Z,100719.19
2023-05-25T00:28:52.780Z,100717.91
2023-05-25T00:29:33.601Z,100727.03
2023-05-25T00:30:14.690Z,100731.19
2023-05-25T00:30:55.640Z,100707.38
2023-05-25T00:31:36.564Z,100715.31
2023-05-25T00:32:17.586Z,100731.94
2023-05-25T00:32:57.725Z,100731.66
2023-05-25T00:33:37.598Z,100729.06
2023-05-25T00:34:17.686Z,100730.75
2023-05-25T00:34:58.601Z,100724.03
2023-05-25T00:35:38.667Z,100743.34
2023-05-25T00:36:18.592Z,100716.41
2023-05-25T00:36:58.674Z,100731.94
2023-05-25T00:37:38.577Z,100730.16
2023-05-25T00:38:24.659Z,100732.44
2023-05-25T00:39:05.592Z,100735.19
2023-05-25T00:39:45.765Z,100738.34
2023-05-25T00:40:26.560Z,100727.03
2023-05-25T00:41:06.680Z,100722.75
2023-05-25T00:41:48.584Z,100714.78
2023-05-25T00:42:28.708Z,100701.19
2023-05-25T00:43:09.592Z,100706.47
2023-05-25T00:43:52.691Z,100721.00
2023-05-25T00:44:32.606Z,100694.56
2023-05-25T00:45:13.701Z,100718.19
2023-05-25T00:45:54.590Z,100712.75
2023-05-25T00:46:34.689Z,100712.16
2023-05-25T00:47:15.590Z,100701.34
2023-05-25T00:47:58.780Z,100713.59
2023-05-25T00:48:39.586Z,100707.91
2023-05-25T00:49:25.723Z,100721.97
2023-05-25T00:50:06.587Z,100713.34
2023-05-25T00:50:49.647Z,100686.75
2023-05-25T00:51:40.590Z,100698.06
2023-05-25T00:52:14.712Z,100692.44
2023-05-25T00:53:01.558Z,100679.47
2023-05-25T00:53:37.091Z,100699.63
2023-05-25T00:54:25.585Z,100698.16
2023-05-25T00:55:01.767Z,100688.19
2023-05-25T00:56:14.598Z,100680.19
2023-05-25T00:57:07.790Z,100676.13
2023-05-25T00:57:52.601Z,100678.47
2023-05-25T00:58:34.941Z,100693.63
2023-05-25T00:59:17.560Z,100695.91
2023-05-25T01:00:01.646Z,100689.06
2023-05-25T01:00:45.600Z,100667.63
2023-05-25T01:01:34.605Z,100695.06
2023-05-25T01:02:30.613Z,100700.50
2023-05-25T01:03:33.659Z,100686.63
2023-05-25T01:04:29.562Z,100678.81
2023-05-25T01:05:17.694Z,100672.22
2023-05-25T01:05:58.539Z,100693.09
2023-05-25T01:06:46.576Z,100676.78
2023-05-25T01:07:41.590Z,100681.09
2023-05-25T01:08:38.583Z,100697.94
2023-05-25T01:09:33.587Z,100671.63
2023-05-25T01:10:29.595Z,100699.53
2023-05-25T01:11:25.580Z,100706.25
2023-05-25T01:12:07.572Z,100688.81
2023-05-25T01:12:49.633Z,100693.78
2023-05-25T01:13:29.560Z,100697.22
2023-05-25T01:14:10.666Z,100692.81
2023-05-25T01:14:53.563Z,100697.78
2023-05-25T01:15:33.637Z,100693.09
2023-05-25T01:16:14.609Z,100713.97
2023-05-25T01:16:56.468Z,100701.81
2023-05-25T01:17:36.586Z,100689.94
2023-05-25T01:18:16.853Z,100698.66
2023-05-25T01:18:59.544Z,100695.81
2023-05-25T01:19:41.152Z,100704.81
2023-05-25T01:20:22.567Z,100716.56
2023-05-25T01:21:29.229Z,100711.97
2023-05-25T01:22:30.545Z,100718.53
2023-05-25T01:23:18.563Z,100715.69
2023-05-25T01:24:05.970Z,100719.53
2023-05-25T01:25:11.549Z,100713.69
2023-05-25T01:25:51.649Z,100709.13
2023-05-25T01:27:05.557Z,100721.38
2023-05-25T01:27:58.733Z,100713.97
2023-05-25T01:28:47.622Z,100719.97
2023-05-25T01:29:29.692Z,100723.41
2023-05-25T01:30:10.530Z,100704.09
2023-05-25T01:30:53.616Z,100709.97
2023-05-25T01:31:33.531Z,100686.22
2023-05-25T01:32:14.733Z,100726.84
2023-05-25T01:32:55.572Z,100720.50
2023-05-25T01:33:36.646Z,100731.22
2023-05-25T01:34:17.574Z,100732.53
2023-05-25T01:34:59.660Z,100723.97
2023-05-25T01:35:40.526Z,100715.41
2023-05-25T01:36:21.039Z,100710.56
2023-05-25T01:37:03.537Z,100737.72
2023-05-25T01:37:53.698Z,100725.53
2023-05-25T01:38:33.531Z,100725.25
2023-05-25T01:39:13.620Z,100700.53
2023-05-25T01:39:53.557Z,100723.97
2023-05-25T01:40:34.616Z,100712.22
2023-05-25T01:41:15.539Z,100706.06
2023-05-25T01:41:55.802Z,100717.94
2023-05-25T01:42:35.544Z,100718.81
2023-05-25T01:43:15.674Z,100700.81
2023-05-25T01:43:56.533Z,100714.50
2023-05-25T01:44:36.654Z,100716.81
2023-05-25T01:45:18.547Z,100711.66
2023-05-25T01:46:46.544Z,100717.84
2023-05-25T01:47:46.645Z,100731.41
2023-05-25T01:49:49.510Z,100714.22
2023-05-25T01:50:58.646Z,100725.22
2023-05-25T01:51:52.606Z,100704.75
2023-05-25T01:53:11.539Z,100733.09
2023-05-25T01:53:55.832Z,100736.06
2023-05-25T01:54:47.534Z,100713.63
2023-05-25T01:55:26.834Z,100727.34
2023-05-25T01:56:18.529Z,100729.94
2023-05-25T01:56:54.639Z,100723.50
2023-05-25T01:57:45.494Z,100726.81
2023-05-25T01:58:21.613Z,100733.94
2023-05-25T01:59:09.568Z,100728.81
2023-05-25T01:59:43.609Z,100729.63
2023-05-25T02:00:38.543Z,100739.81
2023-05-25T02:01:13.607Z,100713.91
2023-05-25T02:01:55.647Z,100730.06
2023-05-25T02:02:38.604Z,100718.50
2023-05-25T02:03:18.512Z,100716.47
2023-05-25T02:03:59.626Z,100734.34
2023-05-25T02:04:40.594Z,100730.50
2023-05-25T02:05:20.925Z,100730.81
2023-05-25T02:06:00.515Z,100735.94
2023-05-25T02:06:42.623Z,100746.25
2023-05-25T02:07:22.534Z,100743.06
2023-05-25T02:08:02.624Z,100712.47
2023-05-25T02:08:43.515Z,100735.53
2023-05-25T02:09:23.599Z,100724.50
2023-05-25T02:10:03.571Z,100722.94
2023-05-25T02:10:44.583Z,100732.97
2023-05-25T02:11:25.486Z,100734.09
2023-05-25T02:12:06.376Z,100711.31
2023-05-25T02:12:46.551Z,100744.22
2023-05-25T02:13:26.628Z,100732.22
2023-05-25T02:14:06.530Z,100725.38
2023-05-25T02:14:48.677Z,100733.06
2023-05-25T02:15:29.544Z,100745.09
2023-05-25T02:16:09.753Z,100736.97
2023-05-25T02:16:52.506Z,100732.94
2023-05-25T02:17:32.657Z,100733.38
2023-05-25T02:18:12.540Z,100724.78
2023-05-25T02:18:53.178Z,100745.69
2023-05-25T02:19:34.508Z,100727.69
2023-05-25T02:20:15.757Z,100742.41
2023-05-25T02:20:56.534Z,100723.66
2023-05-25T02:21:38.205Z,100735.09
2023-05-25T02:22:18.488Z,100740.44
2023-05-25T02:23:00.804Z,100730.25
2023-05-25T02:23:40.522Z,100729.38
2023-05-25T02:24:20.596Z,100741.09
2023-05-25T02:25:00.522Z,100731.81
2023-05-25T02:25:42.683Z,100741.81
2023-05-25T02:26:23.577Z,100737.94
2023-05-25T02:27:03.662Z,100736.25
2023-05-25T02:27:43.477Z,100738.78
2023-05-25T02:28:23.627Z,100745.94
2023-05-25T02:29:03.572Z,100730.22
2023-05-25T02:29:43.608Z,100740.09
2023-05-25T02:30:23.472Z,100719.91
2023-05-25T02:31:03.648Z,100737.06
2023-05-25T02:31:44.568Z,100736.38
2023-05-25T02:32:24.776Z,100729.06
2023-05-25T02:33:04.528Z,100743.53
2023-05-25T02:33:44.577Z,100728.22
2023-05-25T02:34:24.665Z,100723.19
2023-05-25T02:35:06.632Z,100721.88
2023-05-25T02:35:48.499Z,100726.22
2023-05-25T02:36:28.652Z,100737.38
2023-05-25T02:37:08.463Z,100744.38
2023-05-25T02:37:50.879Z,100721.34
2023-05-25T02:38:32.487Z,100728.91
2023-05-25T02:39:12.621Z,100738.19
2023-05-25T02:39:52.532Z,100749.94
2023-05-25T02:40:32.629Z,100734.50
2023-05-25T02:41:12.466Z,100744.03
2023-05-25T02:41:52.560Z,100745.34
2023-05-25T02:42:32.476Z,100746.78
2023-05-25T02:43:12.551Z,100746.19
2023-05-25T02:43:52.473Z,100754.63
2023-05-25T02:44:32.732Z,100729.31
2023-05-25T02:45:17.512Z,100753.22
2023-05-25T02:45:57.583Z,100746.91
2023-05-25T02:46:39.507Z,100753.63
2023-05-25T02:47:19.692Z,100736.72
2023-05-25T02:47:59.534Z,100751.00
2023-05-25T02:48:39.560Z,100736.47
2023-05-25T02:49:20.458Z,100750.06
2023-05-25T02:50:00.728Z,100747.56
2023-05-25T02:50:40.475Z,100758.16
2023-05-25T02:51:20.656Z,100729.59
2023-05-25T02:52:00.478Z,100755.78
2023-05-25T02:52:40.649Z,100756.19
2023-05-25T02:53:20.482Z,100731.31
2023-05-25T02:54:01.567Z,100762.50
2023-05-25T02:54:42.541Z,100756.19
2023-05-25T02:55:26.033Z,100751.44
2023-05-25T02:56:08.474Z,100754.50
2023-05-25T02:56:48.537Z,100759.78
2023-05-25T02:57:29.482Z,100751.06
2023-05-25T02:58:09.588Z,100750.09
2023-05-25T02:58:49.458Z,100764.63
2023-05-25T02:59:29.539Z,100754.06
2023-05-25T03:00:11.471Z,100749.34
2023-05-25T03:00:51.574Z,100767.34
2023-05-25T03:01:31.594Z,100759.31
2023-05-25T03:02:12.564Z,100744.72
2023-05-25T03:02:53.530Z,100750.19
2023-05-25T03:03:34.590Z,100764.22
2023-05-25T03:04:14.486Z,100754.66
2023-05-25T03:04:54.624Z,100745.09
2023-05-25T03:05:34.449Z,100760.50
2023-05-25T03:06:14.542Z,100753.38
2023-05-25T03:06:55.477Z,100760.50
2023-05-25T03:07:35.641Z,100753.25
2023-05-25T03:08:15.437Z,100755.94
2023-05-25T03:08:55.528Z,100747.34
2023-05-25T03:09:35.494Z,100770.22
2023-05-25T03:10:17.528Z,100745.59
2023-05-25T03:10:57.458Z,100750.75
2023-05-25T03:11:37.549Z,100750.19
2023-05-25T03:12:18.471Z,100759.47
2023-05-25T03:12:58.611Z,100755.88
2023-05-25T03:13:38.461Z,100759.31
2023-05-25T03:14:18.522Z,100748.16
2023-05-25T03:14:58.452Z,100757.88
2023-05-25T03:15:40.107Z,100751.91
2023-05-25T03:16:21.464Z,100768.19
2023-05-25T03:17:01.610Z,100757.88
2023-05-25T03:17:42.542Z,100758.28
2023-05-25T03:18:22.563Z,100767.91
2023-05-25T03:19:02.431Z,100772.00
2023-05-25T03:19:42.615Z,100765.97
2023-05-25T03:20:23.464Z,100747.53
2023-05-25T03:21:03.522Z,100762.16
2023-05-25T03:21:45.440Z,100766.31
2023-05-25T03:22:25.815Z,100759.88
2023-05-25T03:23:05.459Z,100744.72
2023-05-25T03:23:45.725Z,100756.72
2023-05-25T03:24:25.452Z,100762.75
2023-05-25T03:25:06.654Z,100764.34
2023-05-25T03:25:46.670Z,100763.19
2023-05-25T03:26:26.736Z,100774.72
2023-05-25T03:27:07.448Z,100764.16
2023-05-25T03:27:47.512Z,100759.59
2023-05-25T03:28:30.450Z,100745.56
2023-05-25T03:29:10.625Z,100743.50
2023-05-25T03:29:50.427Z,100757.44
2023-05-25T03:30:31.324Z,100749.84
2023-05-25T03:31:11.447Z,100755.28
2023-05-25T03:31:54.543Z,100746.69
2023-05-25T03:32:34.478Z,100759.78
2023-05-25T03:33:14.513Z,100753.50
2023-05-25T03:33:54.514Z,100759.78
2023-05-25T03:34:37.365Z,100750.81
2023-05-25T03:35:17.435Z,100743.50
2023-05-25T03:35:57.494Z,100780.94
2023-05-25T03:36:39.439Z,100764.50
2023-05-25T03:37:19.583Z,100774.91
2023-05-25T03:37:59.462Z,100765.81
2023-05-25T03:38:39.504Z,100785.13
2023-05-25T03:39:20.449Z,100765.00
2023-05-25T03:40:00.610Z,100749.78
2023-05-25T03:40:40.447Z,100765.13
2023-05-25T03:41:20.810Z,100758.72
2023-05-25T03:42:01.432Z,100758.97
2023-05-25T03:42:42.517Z,100759.78
2023-05-25T03:43:23.428Z,100774.13
2023-05-25T03:44:03.529Z,100779.59
2023-05-25T03:44:43.444Z,100766.22
2023-05-25T03:45:23.525Z,100751.00
2023-05-25T03:46:03.476Z,100754.16
2023-05-25T03:46:57.433Z,100765.28
2023-05-25T03:47:52.456Z,100772.16
2023-05-25T03:48:46.410Z,100773.16
2023-05-25T03:49:40.446Z,100754.38
2023-05-25T03:50:20.447Z,100763.31
2023-05-25T03:51:00.676Z,100764.19
2023-05-25T03:51:41.407Z,100775.09
2023-05-25T03:52:21.536Z,100778.78
2023-05-25T03:53:01.421Z,100740.69
2023-05-25T03:53:41.575Z,100770.94
2023-05-25T03:54:21.412Z,100766.91
2023-05-25T03:55:05.190Z,100757.06
2023-05-25T03:55:46.521Z,100780.19
2023-05-25T03:56:27.284Z,100773.34
2023-05-25T03:57:10.425Z,100771.34
2023-05-25T03:57:50.496Z,100746.97
2023-05-25T03:58:30.430Z,100759.28
2023-05-25T03:59:10.603Z,100758.84
2023-05-25T03:59:51.409Z,100752.00
2023-05-25T04:00:31.510Z,100778.03
2023-05-25T04:01:11.441Z,100759.53
2023-05-25T04:01:52.518Z,100782.09
2023-05-25T04:02:33.437Z,100767.50
2023-05-25T04:03:13.577Z,100782.34
2023-05-25T04:03:54.580Z,100768.03
2023-05-25T04:04:34.515Z,100780.06
2023-05-25T04:05:15.442Z,100767.59
2023-05-25T04:05:59.077Z,100764.91
2023-05-25T04:06:40.611Z,100774.56
2023-05-25T04:07:20.582Z,100794.56
2023-05-25T04:08:01.392Z,100785.13
2023-05-25T04:08:41.734Z,100783.31
2023-05-25T04:09:22.410Z,100770.00
2023-05-25T04:10:02.548Z,100781.59
2023-05-25T04:10:42.397Z,100793.06
2023-05-25T04:11:24.639Z,100779.19
2023-05-25T04:12:05.423Z,100788.53
2023-05-25T04:12:45.623Z,100791.59
2023-05-25T04:13:25.388Z,100784.31
2023-05-25T04:14:05.509Z,100779.88
2023-05-25T04:14:45.388Z,100791.94
2023-05-25T04:15:25.457Z,100795.78
2023-05-25T04:16:06.474Z,100771.38
2023-05-25T04:16:46.523Z,100786.13
2023-05-25T04:17:31.412Z,100792.84
2023-05-25T04:18:11.587Z,100771.91
2023-05-25T04:18:51.400Z,100783.34
2023-05-25T04:19:31.481Z,100792.66
2023-05-25T04:20:15.461Z,100803.41
2023-05-25T04:20:57.322Z,100783.25
2023-05-25T04:21:37.373Z,100779.47
2023-05-25T04:22:17.500Z,100798.22
2023-05-25T04:22:57.412Z,100788.63
2023-05-25T04:23:37.545Z,100790.19
2023-05-25T04:24:18.380Z,100801.38
2023-05-25T04:24:58.483Z,100789.91
2023-05-25T04:25:38.411Z,100777.59
2023-05-25T04:26:18.545Z,100775.97
2023-05-25T04:26:58.375Z,100779.88
2023-05-25T04:27:38.459Z,100778.03
2023-05-25T04:28:21.538Z,100784.13
2023-05-25T04:29:02.715Z,100778.94
2023-05-25T04:29:43.403Z,100796.44
2023-05-25T04:30:23.520Z,100791.53
2023-05-25T04:31:06.444Z,100784.41
2023-05-25T04:31:47.298Z,100767.63
2023-05-25T04:32:28.412Z,100780.94
2023-05-25T04:33:11.520Z,100783.25
2023-05-25T04:33:52.423Z,100770.69
2023-05-25T04:34:34.217Z,100783.00
2023-05-25T04:35:16.418Z,100778.13
2023-05-25T04:35:58.692Z,100793.72
2023-05-25T04:36:39.384Z,100782.84
2023-05-25T04:37:19.603Z,100779.59
2023-05-25T04:38:01.401Z,100776.84
2023-05-25T04:38:42.904Z,100779.31
2023-05-25T04:39:23.515Z,100790.78
2023-05-25T04:40:08.435Z,100783.91
2023-05-25T04:40:49.382Z,100791.38
2023-05-25T04:41:31.038Z,100786.69
2023-05-25T04:42:12.438Z,100786.22
2023-05-25T04:42:54.159Z,100781.38
2023-05-25T04:43:36.408Z,100782.38
2023-05-25T04:44:16.538Z,100768.22
2023-05-25T04:45:02.418Z,100794.84
2023-05-25T04:45:43.796Z,100792.97
2023-05-25T04:46:25.509Z,100770.84
2023-05-25T04:47:05.779Z,100780.81
2023-05-25T04:47:47.479Z,100790.56
2023-05-25T04:48:33.626Z,100783.81
2023-05-25T04:49:17.359Z,100793.72
2023-05-25T04:49:57.520Z,100799.25
2023-05-25T04:50:38.435Z,100782.13
2023-05-25T04:51:20.110Z,100794.41
2023-05-25T04:52:01.371Z,100791.56
2023-05-25T04:52:41.451Z,100802.88
2023-05-25T04:53:22.376Z,100793.94
2023-05-25T04:54:16.442Z,100788.34
2023-05-25T04:55:10.454Z,100796.81
2023-05-25T04:55:58.437Z,100794.84
2023-05-25T04:56:32.455Z,100792.84
2023-05-25T04:57:19.366Z,100779.81
2023-05-25T04:57:53.481Z,100779.09
2023-05-25T04:58:40.366Z,100792.00
2023-05-25T04:59:14.474Z,100784.81
2023-05-25T05:00:02.370Z,100793.72
2023-05-25T05:00:36.489Z,100781.00
2023-05-25T05:01:23.539Z,100793.84
2023-05-25T05:01:57.477Z,100775.72
2023-05-25T05:02:44.490Z,100789.00
2023-05-25T05:03:18.553Z,100790.56
2023-05-25T05:04:05.441Z,100777.25
2023-05-25T05:04:41.302Z,100790.28
2023-05-25T05:05:29.381Z,100783.72
2023-05-25T05:06:03.495Z,100781.88
2023-05-25T05:06:44.394Z,100770.56
2023-05-25T05:07:24.486Z,100774.88
2023-05-25T05:08:04.419Z,100776.28
2023-05-25T05:08:44.478Z,100766.13
2023-05-25T05:09:25.376Z,100761.41
2023-05-25T05:10:08.483Z,100769.75
2023-05-25T05:10:48.389Z,100777.91
2023-05-25T05:11:28.549Z,100767.84
2023-05-25T05:12:11.973Z,100782.50
2023-05-25T05:12:54.392Z,100780.63
2023-05-25T05:13:35.356Z,100781.19
2023-05-25T05:14:15.645Z,100776.03
2023-05-25T05:14:58.389Z,100759.69
2023-05-25T05:15:38.442Z,100764.16
2023-05-25T05:16:18.410Z,100769.44
2023-05-25T05:16:58.626Z,100763.16
2023-05-25T05:17:48.400Z,100770.19
2023-05-25T05:18:31.905Z,100788.91
2023-05-25T05:19:12.365Z,100785.50
2023-05-25T05:19:52.719Z,100777.19
2023-05-25T05:20:33.433Z,100778.59
2023-05-25T05:21:13.670Z,100785.47
2023-05-25T05:21:54.389Z,100796.91
2023-05-25T05:22:34.626Z,100796.75
2023-05-25T05:23:14.386Z,100791.47
2023-05-25T05:23:54.492Z,100795.47
2023-05-25T05:24:34.343Z,100790.03
2023-05-25T05:25:15.441Z,100782.59
2023-05-25T05:25:56.398Z,100792.88
2023-05-25T05:26:48.288Z,100793.47
2023-05-25T05:27:39.793Z,100785.16
2023-05-25T05:28:27.396Z,100786.88
2023-05-25T05:29:21.364Z,100782.88
2023-05-25T05:30:16.351Z,100773.16
2023-05-25T05:31:11.443Z,100794.00
2023-05-25T05:32:05.349Z,100784.03
2023-05-25T05:32:59.493Z,100775.81
2023-05-25T05:33:46.401Z,100776.41
2023-05-25T05:34:20.467Z,100793.41
2023-05-25T05:35:08.370Z,100783.81
2023-05-25T05:35:42.600Z,100792.81
2023-05-25T05:36:36.383Z,100779.13
2023-05-25T05:37:16.462Z,100791.53
2023-05-25T05:38:03.354Z,100793.09
2023-05-25T05:38:38.788Z,100799.97
2023-05-25T05:39:21.325Z,100795.09
2023-05-25T05:40:01.402Z,100796.38
2023-05-25T05:40:42.378Z,100795.38
2023-05-25T05:41:33.458Z,100799.44
2023-05-25T05:42:14.361Z,100797.00
2023-05-25T05:42:54.452Z,100785.38
2023-05-25T05:43:36.371Z,100789.69
2023-05-25T05:44:16.439Z,100803.00
2023-05-25T05:44:56.416Z,100776.56
2023-05-25T05:45:36.440Z,100786.09
2023-05-25T05:46:17.362Z,100790.31
2023-05-25T05:47:01.957Z,100794.63
2023-05-25T05:47:42.430Z,100788.34
2023-05-25T05:48:23.432Z,100792.75
2023-05-25T05:49:10.362Z,100808.63
2023-05-25T05:49:50.459Z,100798.00
2023-05-25T05:50:31.362Z,100804.88
2023-05-25T05:51:12.415Z,100802.06
2023-05-25T05:51:53.560Z,100784.19
2023-05-25T05:52:33.414Z,100794.47
2023-05-25T05:53:17.154Z,100806.16
2023-05-25T05:53:57.452Z,100801.03
2023-05-25T05:54:38.350Z,100805.78
2023-05-25T05:55:18.548Z,100808.19
2023-05-25T05:56:01.373Z,100799.75
2023-05-25T05:56:41.447Z,100819.22
2023-05-25T05:57:21.354Z,100813.34
2023-05-25T05:58:01.421Z,100810.06
2023-05-25T05:58:42.361Z,100812.06
2023-05-25T05:59:22.481Z,100819.22
2023-05-25T06:00:03.382Z,100810.47
2023-05-25T06:00:43.443Z,100817.19
2023-05-25T06:01:24.390Z,100807.44
2023-05-25T06:02:04.560Z,100813.63
2023-05-25T06:02:46.547Z,100797.16
2023-05-25T06:03:30.146Z,100779.44
2023-05-25T06:04:13.332Z,100815.19
2023-05-25T06:04:54.455Z,100803.59
2023-05-25T06:05:35.465Z,100805.19
2023-05-25T06:06:15.611Z,100813.50
2023-05-25T06:06:56.352Z,100805.78
2023-05-25T06:07:37.975Z,100762.84
2023-05-25T06:08:21.306Z,100809.41
2023-05-25T06:09:03.472Z,100801.72
2023-05-25T06:09:43.340Z,100802.88
2023-05-25T06:10:23.466Z,100807.75
2023-05-25T06:11:05.304Z,100793.44
2023-05-25T06:11:46.403Z,100803.16
2023-05-25T06:12:26.334Z,100793.84
2023-05-25T06:13:09.477Z,100815.69
2023-05-25T06:13:49.337Z,100807.13
2023-05-25T06:14:29.466Z,100795.22
2023-05-25T06:15:11.321Z,100802.09
2023-05-25T06:15:51.410Z,100818.25
2023-05-25T06:16:34.381Z,100803.91
2023-05-25T06:17:14.366Z,100796.81
2023-05-25T06:17:54.420Z,100794.94
2023-05-25T06:18:34.404Z,100803.09
2023-05-25T06:19:15.438Z,100807.97
2023-05-25T06:19:55.477Z,100815.53
2023-05-25T06:20:35.393Z,100816.13
2023-05-25T06:21:15.443Z,100796.66
2023-05-25T06:21:55.312Z,100811.88
2023-05-25T06:22:35.453Z,100779.72
2023-05-25T06:23:18.296Z,100814.56
2023-05-25T06:23:58.411Z,100804.13
2023-05-25T06:24:38.283Z,100815.09
2023-05-25T06:25:18.424Z,100807.31
2023-05-25T06:26:00.326Z,100818.75
2023-05-25T06:26:40.373Z,100796.16
2023-05-25T06:27:21.285Z,100807.75
2023-05-25T06:28:01.371Z,100813.88
2023-05-25T06:28:42.338Z,100812.00
2023-05-25T06:29:23.377Z,100823.00
2023-05-25T06:30:03.304Z,100822.75
2023-05-25T06:30:43.446Z,100820.88
2023-05-25T06:31:24.325Z,100807.56
2023-05-25T06:32:04.461Z,100789.69
2023-05-25T06:32:44.327Z,100812.09
2023-05-25T06:33:24.411Z,100819.69
2023-05-25T06:34:04.330Z,100809.38
2023-05-25T06:34:44.402Z,100802.81
2023-05-25T06:35:26.285Z,100809.38
2023-05-25T06:36:07.331Z,100807.66
2023-05-25T06:36:47.289Z,100805.09
2023-05-25T06:37:27.376Z,100813.69
2023-05-25T06:38:08.273Z,100812.44
2023-05-25T06:38:48.421Z,100805.13
2023-05-25T06:39:29.304Z,100782.38
2023-05-25T06:40:10.441Z,100809.97
2023-05-25T06:40:50.306Z,100805.88
2023-05-25T06:41:30.894Z,100807.84
2023-05-25T06:42:12.291Z,100811.59
2023-05-25T06:42:52.358Z,100803.25
2023-05-25T06:43:33.318Z,100808.47
2023-05-25T06:44:14.338Z,100778.72
2023-05-25T06:44:54.285Z,100812.84
2023-05-25T06:45:34.376Z,100802.63
2023-05-25T06:46:17.345Z,100791.91
2023-05-25T06:46:57.519Z,100802.06
2023-05-25T06:47:39.400Z,100808.53
2023-05-25T06:48:19.381Z,100804.50
2023-05-25T06:48:59.300Z,100809.22
2023-05-25T06:49:39.372Z,100801.53
2023-05-25T06:50:20.345Z,100811.59
2023-05-25T06:51:00.363Z,100808.66
2023-05-25T06:51:41.258Z,100818.34
2023-05-25T06:52:21.428Z,100809.50
2023-05-25T06:53:01.266Z,100814.31
2023-05-25T06:53:41.428Z,100815.00
2023-05-25T06:54:22.272Z,100815.00
2023-05-25T06:55:04.000Z,100810.34
2023-05-25T06:55:45.525Z,100813.53
2023-05-25T06:56:26.490Z,100816.75
2023-05-25T06:57:06.261Z,100818.13
2023-05-25T06:57:47.345Z,100810.66
2023-05-25T06:58:27.268Z,100806.28
2023-05-25T06:59:07.355Z,100814.28
2023-05-25T06:59:48.330Z,100792.22
2023-05-25T07:00:28.376Z,100802.03
2023-05-25T07:01:09.367Z,100807.56
2023-05-25T07:01:49.658Z,100796.94
2023-05-25T07:02:30.297Z,100805.09
2023-05-25T07:03:10.550Z,100797.00
2023-05-25T07:03:51.250Z,100794.94
2023-05-25T07:04:31.364Z,100798.53
2023-05-25T07:05:12.309Z,100803.75
2023-05-25T07:05:46.284Z,100801.19
2023-05-25T07:06:34.281Z,100791.97
2023-05-25T07:07:09.465Z,100795.19
2023-05-25T07:07:57.272Z,100802.19
2023-05-25T07:08:31.483Z,100802.00
2023-05-25T07:09:18.291Z,100806.69
2023-05-25T07:09:52.027Z,100789.81
2023-05-25T07:10:39.254Z,100798.25
2023-05-25T07:11:14.197Z,100802.31
2023-05-25T07:11:55.280Z,100811.72
2023-05-25T07:12:29.374Z,100797.38
2023-05-25T07:13:03.057Z,100794.47
2023-05-25T07:13:43.261Z,100807.63
2023-05-25T07:14:17.360Z,100797.03
2023-05-25T07:14:51.060Z,100814.78
2023-05-25T07:15:32.289Z,100801.09
2023-05-25T07:16:06.359Z,100794.03
2023-05-25T07:16:40.036Z,100799.84
2023-05-25T07:17:21.259Z,100812.66
2023-05-25T07:17:57.196Z,100810.91
2023-05-25T07:18:33.434Z,100813.31
2023-05-25T07:19:14.284Z,100801.94
2023-05-25T07:19:50.001Z,100804.44
2023-05-25T07:20:24.652Z,100802.94
2023-05-25T07:21:05.246Z,100813.38
2023-05-25T07:21:39.401Z,100809.56
2023-05-25T07:22:13.152Z,100815.25
2023-05-25T07:22:54.278Z,100797.31
2023-05-25T07:23:28.349Z,100813.31
2023-05-25T07:24:02.473Z,100811.91
2023-05-25T07:24:43.262Z,100803.47
2023-05-25T07:25:17.370Z,100799.97
2023-05-25T07:25:51.056Z,100810.75
2023-05-25T07:26:32.282Z,100817.09
2023-05-25T07:27:06.971Z,100807.69
2023-05-25T07:27:42.704Z,100819.75
2023-05-25T07:28:22.311Z,100809.50
2023-05-25T07:28:56.388Z,100809.81
2023-05-25T07:29:30.497Z,100799.53
2023-05-25T07:30:13.251Z,100791.38
2023-05-25T07:30:47.382Z,100816.66
2023-05-25T07:31:21.318Z,100796.97
2023-05-25T07:32:01.261Z,100822.31
2023-05-25T07:32:35.563Z,100812.78
2023-05-25T07:33:10.044Z,100799.78
2023-05-25T07:33:51.276Z,100820.03
2023-05-25T07:34:27.734Z,100820.47
2023-05-25T07:35:02.000Z,100802.53
2023-05-25T07:35:42.309Z,100817.81
2023-05-25T07:36:16.852Z,100799.22
2023-05-25T07:36:51.259Z,100825.00
2023-05-25T07:37:32.257Z,100820.72
2023-05-25T07:38:08.376Z,100809.38
2023-05-25T07:38:42.157Z,100810.66
2023-05-25T07:39:22.274Z,100802.00
2023-05-25T07:39:56.371Z,100826.44
2023-05-25T07:40:30.459Z,100815.09
2023-05-25T07:41:10.235Z,100817.63
2023-05-25T07:41:45.388Z,100817.94
2023-05-25T07:42:21.060Z,100822.22
2023-05-25T07:43:02.224Z,100824.69
2023-05-25T07:43:37.405Z,100807.41
2023-05-25T07:44:11.035Z,100815.22
2023-05-25T07:44:51.301Z,100810.34
2023-05-25T07:45:25.354Z,100808.53
2023-05-25T07:45:59.106Z,100820.88
2023-05-25T07:46:39.295Z,100821.25
2023-05-25T07:47:13.475Z,100813.69
2023-05-25T07:47:47.642Z,100802.13
2023-05-25T07:48:27.388Z,100802.13
2023-05-25T07:49:03.418Z,100804.19
2023-05-25T07:49:36.956Z,100812.28
2023-05-25T07:50:18.256Z,100801.84
2023-05-25T07:50:52.573Z,100810.59
2023-05-25T07:51:29.140Z,100814.50
2023-05-25T07:52:12.258Z,100823.06
2023-05-25T07:52:46.460Z,100822.88
2023-05-25T07:53:21.388Z,100814.78
2023-05-25T07:54:03.220Z,100801.47
2023-05-25T07:54:40.211Z,100834.72
2023-05-25T07:55:14.078Z,100826.91
2023-05-25T07:55:54.341Z,100817.16
2023-05-25T07:56:29.304Z,100801.84
2023-05-25T07:57:03.108Z,100816.94